Time;durP1;ratioP1;P1;durP2;ratioP2;P2;SDS_P1;SDS_P2;PMS_P1;PMS_P2;Temp;Humidity;BMP_temperature;BMP_pressure;BME280_temperature;BME280_humidity;BME280_pressure;Samples;Min_cycle;Max_cycle;Signal;HPM_P1;HPM_P2
2022/10/23 00:00:07;;;;;;;6.05;2.90;;;;;;;13.44;79.53;99551.03;341701;29;742;-84
2022/10/23 00:00:19;;;;;;;8.00;3.33;;;;;;;13.42;79.36;99552.88;341500;29;984;-86
2022/10/23 00:00:31;;;;;;;8.20;3.40;;;;;;;13.39;78.94;99548.63;342827;28;885;-86
2022/10/23 00:00:44;;;;;;;5.95;3.30;;;;;;;13.36;78.89;99548.78;342758;28;1055;-86
2022/10/23 00:00:56;;;;;;;4.57;3.25;;;;;;;13.34;78.95;99544.50;340171;29;1234;-87
2022/10/23 00:01:16;;;;;;;4.35;3.10;;;;;;;13.24;79.10;99545.81;342573;28;1365;-86
2022/10/23 00:01:39;;;;;;;4.95;3.15;;;;;;;13.22;79.52;99545.03;341332;29;853;-84
2022/10/23 00:01:51;;;;;;;7.65;3.40;;;;;;;13.23;79.65;99546.75;341431;29;1219;-85
2022/10/23 00:02:03;;;;;;;9.13;3.30;;;;;;;13.28;79.85;99547.38;341486;29;1603;-86
2022/10/23 00:02:15;;;;;;;8.57;3.40;;;;;;;13.31;79.70;99545.50;341686;29;974;-85
2022/10/23 00:02:28;;;;;;;6.43;3.30;;;;;;;13.34;79.55;99544.50;341706;29;988;-85
2022/10/23 00:02:40;;;;;;;4.38;3.05;;;;;;;13.36;79.33;99542.69;341585;29;898;-85
2022/10/23 00:02:53;;;;;;;5.55;3.03;;;;;;;13.36;79.25;99537.47;341531;29;772;-85
2022/10/23 00:03:05;;;;;;;6.25;3.30;;;;;;;13.36;79.08;99545.28;340150;29;988;-86
2022/10/23 00:03:17;;;;;;;7.43;3.40;;;;;;;13.37;79.15;99550.44;338987;29;1001;-85
2022/10/23 00:03:29;;;;;;;6.60;3.30;;;;;;;13.37;79.14;99541.78;340447;29;1015;-85
2022/10/23 00:03:41;;;;;;;5.82;3.50;;;;;;;13.39;79.05;99542.56;340139;29;901;-85
2022/10/23 00:03:59;;;;;;;5.72;3.55;;;;;;;13.34;79.58;99544.50;338912;29;751;-87
2022/10/23 00:04:20;;;;;;;6.13;3.20;;;;;;;13.30;79.62;99542.97;338588;29;1169;-85
2022/10/23 00:04:32;;;;;;;4.68;3.05;;;;;;;13.33;79.12;99542.84;340260;29;975;-85
2022/10/23 00:04:44;;;;;;;5.00;3.15;;;;;;;13.33;79.33;99543.69;340128;29;783;-85
2022/10/23 00:04:56;;;;;;;5.57;3.10;;;;;;;13.34;79.33;99552.34;340230;29;987;-85
2022/10/23 00:05:08;;;;;;;5.82;3.10;;;;;;;13.33;79.04;99537.63;341431;29;976;-86
2022/10/23 00:05:21;;;;;;;6.88;3.15;;;;;;;13.33;79.66;99548.06;341561;29;1136;-85
2022/10/23 00:05:33;;;;;;;7.35;3.22;;;;;;;13.33;79.68;99548.91;342972;28;798;-86
2022/10/23 00:05:45;;;;;;;6.22;3.25;;;;;;;13.35;79.37;99557.50;343143;28;1738;-84
2022/10/23 00:05:57;;;;;;;6.68;3.40;;;;;;;13.34;79.57;99544.50;344152;28;1968;-85
2022/10/23 00:06:10;;;;;;;7.28;3.20;;;;;;;13.32;79.50;99547.22;341740;29;1048;-84
2022/10/23 00:06:23;;;;;;;6.80;2.92;;;;;;;13.34;79.51;99549.72;340067;29;1533;-85
2022/10/23 00:06:35;;;;;;;5.40;2.88;;;;;;;13.34;79.51;99549.72;339849;29;881;-85
2022/10/23 00:06:48;;;;;;;4.60;3.13;;;;;;;13.34;79.48;99544.50;339984;29;743;-84
2022/10/23 00:07:00;;;;;;;5.22;3.33;;;;;;;13.36;79.32;99538.31;340371;29;942;-85
2022/10/23 00:07:12;;;;;;;5.88;3.08;;;;;;;13.37;79.50;99544.38;341670;29;711;-84
2022/10/23 00:07:24;;;;;;;6.20;3.17;;;;;;;13.38;79.40;99548.69;341623;29;869;-86
2022/10/23 00:07:36;;;;;;;6.20;3.38;;;;;;;13.38;79.32;99546.06;342827;28;926;-85
2022/10/23 00:07:53;;;;;;;7.22;3.83;;;;;;;13.42;79.22;99542.44;341850;28;1093;-84
2022/10/23 00:08:05;;;;;;;8.20;3.80;;;;;;;13.45;78.95;99547.50;340236;29;858;-86
2022/10/23 00:08:17;;;;;;;7.70;3.47;;;;;;;13.46;79.11;99543.09;340306;29;1207;-86
2022/10/23 00:08:29;;;;;;;6.78;3.22;;;;;;;13.45;79.02;99544.88;341781;29;990;-85
2022/10/23 00:08:42;;;;;;;6.88;3.38;;;;;;;13.45;79.19;99547.50;341471;28;1069;-85
2022/10/23 00:08:55;;;;;;;5.47;3.30;;;;;;;13.43;79.05;99551.09;340368;29;986;-86
2022/10/23 00:09:08;;;;;;;6.85;3.20;;;;;;;13.43;78.97;99549.31;341252;29;1092;-85
2022/10/23 00:09:22;;;;;;;7.03;3.10;;;;;;;13.39;78.76;99543.41;339866;29;1079;-84
2022/10/23 00:09:34;;;;;;;7.82;3.33;;;;;;;13.39;79.14;99551.22;341210;29;980;-88
2022/10/23 00:09:46;;;;;;;6.68;3.20;;;;;;;13.40;79.11;99544.25;341650;29;730;-86
2022/10/23 00:09:58;;;;;;;5.97;3.08;;;;;;;13.40;79.02;99549.47;342943;28;935;-86
2022/10/23 00:10:10;;;;;;;5.95;3.10;;;;;;;13.34;79.31;99545.38;342963;28;729;-87
2022/10/23 00:10:24;;;;;;;6.13;2.92;;;;;;;13.34;79.64;99549.72;341888;28;999;-84
2022/10/23 00:10:40;;;;;;;5.53;3.00;;;;;;;13.35;79.70;99546.22;342716;28;905;-85
2022/10/23 00:10:52;;;;;;;6.37;3.23;;;;;;;13.36;79.69;99545.28;341405;29;1269;-85
2022/10/23 00:11:20;;;;;;;5.95;3.03;;;;;;;13.37;79.73;99544.38;343053;28;733;-85
2022/10/23 00:11:34;;;;;;;6.72;2.95;;;;;;;13.36;79.82;99547.91;341676;29;895;-85
2022/10/23 00:11:47;;;;;;;5.93;2.97;;;;;;;13.39;79.73;99547.78;341054;29;1085;-85
2022/10/23 00:11:59;;;;;;;4.57;3.00;;;;;;;13.38;80.01;99546.94;342298;28;1860;-84
2022/10/23 00:12:11;;;;;;;6.05;3.10;;;;;;;13.38;79.73;99544.31;342693;28;1603;-85
2022/10/23 00:12:23;;;;;;;5.95;3.15;;;;;;;13.39;80.00;99547.78;342543;28;1036;-84
2022/10/23 00:12:35;;;;;;;5.55;3.30;;;;;;;13.42;79.63;99542.44;341528;29;1191;-85
2022/10/23 00:12:48;;;;;;;5.07;3.17;;;;;;;13.38;79.50;99538.22;339976;29;1084;-85
2022/10/23 00:13:00;;;;;;;6.15;3.10;;;;;;;13.39;79.76;99542.56;340288;29;778;-85
2022/10/23 00:13:12;;;;;;;6.28;3.13;;;;;;;13.40;79.84;99544.25;340101;29;885;-85
2022/10/23 00:13:24;;;;;;;7.43;3.10;;;;;;;13.42;79.47;99537.19;339980;29;975;-85
2022/10/23 00:13:36;;;;;;;9.23;2.92;;;;;;;13.43;79.44;99544.09;340211;29;1042;-85
2022/10/23 00:13:49;;;;;;;11.05;3.00;;;;;;;13.45;79.62;99541.44;340405;29;799;-86
2022/10/23 00:14:04;;;;;;;8.23;2.90;;;;;;;13.48;79.32;99543.88;341503;29;1202;-86
2022/10/23 00:14:20;;;;;;;8.32;2.70;;;;;;;13.48;79.35;99539.53;340206;29;948;-85
2022/10/23 00:14:32;;;;;;;9.60;2.58;;;;;;;13.48;79.29;99536.91;341283;29;903;-85
2022/10/23 00:14:44;;;;;;;9.25;2.70;;;;;;;13.46;79.30;99543.97;341296;28;1702;-85
2022/10/23 00:14:56;;;;;;;9.20;2.85;;;;;;;13.45;79.21;99531.81;341522;29;862;-85
2022/10/23 00:15:08;;;;;;;7.32;2.92;;;;;;;13.45;79.18;99544.88;342791;28;996;-85
2022/10/23 00:15:21;;;;;;;5.95;2.90;;;;;;;13.44;79.25;99532.75;342265;28;1713;-84
2022/10/23 00:15:35;;;;;;;5.38;2.75;;;;;;;13.42;79.25;99537.19;340031;29;1055;-85
2022/10/23 00:15:47;;;;;;;5.35;2.78;;;;;;;13.42;79.14;99534.59;342486;28;1072;-84
2022/10/23 00:15:59;;;;;;;6.25;3.03;;;;;;;13.41;79.20;99545.94;340018;29;1172;-86
2022/10/23 00:16:11;;;;;;;5.90;3.10;;;;;;;13.42;79.23;99534.59;341801;28;1768;-85
2022/10/23 00:16:23;;;;;;;5.13;3.13;;;;;;;13.42;79.05;99537.19;341745;29;1145;-85
2022/10/23 00:16:35;;;;;;;5.22;3.10;;;;;;;13.43;79.13;99536.28;339684;29;1706;-85
2022/10/23 00:16:47;;;;;;;6.05;3.03;;;;;;;13.44;79.32;99532.75;339944;29;1203;-85
2022/10/23 00:16:59;;;;;;;6.63;2.95;;;;;;;13.44;79.16;99537.97;339475;29;1045;-85
2022/10/23 00:17:11;;;;;;;5.55;2.97;;;;;;;13.45;78.67;99541.44;340707;29;1060;-84
2022/10/23 00:17:23;;;;;;;4.88;2.97;;;;;;;13.44;78.66;99543.19;341452;29;1260;-85
2022/10/23 00:17:35;;;;;;;5.05;3.10;;;;;;;13.45;78.65;99537.03;341605;29;1561;-85
2022/10/23 00:17:48;;;;;;;6.18;3.10;;;;;;;13.45;78.42;99531.00;341003;29;1179;-85
2022/10/23 00:18:00;;;;;;;6.93;3.00;;;;;;;13.43;79.00;99531.03;342409;28;919;-84
2022/10/23 00:18:12;;;;;;;6.50;3.00;;;;;;;13.43;78.94;99533.66;342859;28;1031;-84
2022/10/23 00:18:24;;;;;;;6.97;3.10;;;;;;;13.43;78.97;99528.44;343158;28;889;-85
2022/10/23 00:18:37;;;;;;;6.68;3.10;;;;;;;13.44;79.08;99534.50;344205;28;1053;-85
2022/10/23 00:18:49;;;;;;;4.70;2.90;;;;;;;13.42;78.94;99537.19;345294;28;1103;-86
2022/10/23 00:19:02;;;;;;;5.10;2.90;;;;;;;13.41;78.90;99532.88;343761;28;1206;-85
2022/10/23 00:19:14;;;;;;;5.97;2.80;;;;;;;13.43;78.72;99535.44;342739;28;1016;-85
2022/10/23 00:19:26;;;;;;;7.47;2.95;;;;;;;13.42;79.10;99533.72;342869;28;763;-84
2022/10/23 00:19:38;;;;;;;8.95;3.17;;;;;;;13.38;79.03;99531.28;342005;28;892;-85
2022/10/23 00:19:50;;;;;;;10.68;3.25;;;;;;;13.39;79.13;99532.94;343769;28;1024;-85
2022/10/23 00:20:03;;;;;;;8.45;3.08;;;;;;;13.37;79.25;99539.16;343386;28;979;-85
2022/10/23 00:20:15;;;;;;;8.43;2.97;;;;;;;13.38;79.17;99533.00;342761;28;779;-85
2022/10/23 00:20:27;;;;;;;6.55;3.00;;;;;;;13.36;79.41;99532.25;342885;28;780;-85
2022/10/23 00:20:39;;;;;;;6.97;3.10;;;;;;;13.36;79.47;99540.06;341517;29;750;-86
2022/10/23 00:20:51;;;;;;;6.72;2.92;;;;;;;13.34;79.63;99531.47;341497;29;1283;-86
2022/10/23 00:21:05;;;;;;;6.40;2.90;;;;;;;13.33;79.48;99528.00;341349;29;1185;-85
2022/10/23 00:21:17;;;;;;;5.55;2.92;;;;;;;13.36;79.28;99529.63;343230;28;1132;-85
2022/10/23 00:21:29;;;;;;;4.97;3.10;;;;;;;13.39;79.30;99529.50;343038;28;976;-85
2022/10/23 00:21:41;;;;;;;7.30;3.08;;;;;;;13.38;79.29;99531.28;342819;28;782;-84
2022/10/23 00:21:53;;;;;;;6.85;3.00;;;;;;;13.39;79.33;99532.09;341432;29;1426;-85
2022/10/23 00:22:07;;;;;;;5.40;2.92;;;;;;;13.38;79.65;99531.28;341477;29;703;-85
2022/10/23 00:22:19;;;;;;;5.90;3.10;;;;;;;13.37;79.62;99526.94;340462;29;1075;-84
2022/10/23 00:22:31;;;;;;;6.60;3.13;;;;;;;13.36;79.51;99521.78;340104;28;1213;-84
2022/10/23 00:22:43;;;;;;;6.05;3.15;;;;;;;13.36;79.55;99520.06;340295;29;875;-85
2022/10/23 00:22:55;;;;;;;4.80;3.10;;;;;;;13.37;79.46;99523.50;341595;29;776;-85
2022/10/23 00:23:07;;;;;;;6.47;3.05;;;;;;;13.37;79.63;99526.13;340864;29;1067;-84
2022/10/23 00:23:19;;;;;;;5.65;2.85;;;;;;;13.36;79.78;99521.78;341248;29;1216;-84
2022/10/23 00:23:31;;;;;;;6.13;2.90;;;;;;;13.38;79.61;99526.06;341327;29;1060;-85
2022/10/23 00:23:44;;;;;;;7.32;2.90;;;;;;;13.37;79.78;99523.50;341330;29;1145;-84
2022/10/23 00:23:56;;;;;;;8.10;3.10;;;;;;;13.37;79.66;99523.50;342346;28;773;-85
2022/10/23 00:24:08;;;;;;;6.60;3.10;;;;;;;13.39;79.57;99526.88;342910;28;1040;-85
2022/10/23 00:24:25;;;;;;;4.32;2.80;;;;;;;13.42;79.40;99521.53;342946;28;1153;-85
2022/10/23 00:24:37;;;;;;;3.85;2.80;;;;;;;13.43;79.45;99519.78;341407;29;988;-89
2022/10/23 00:24:49;;;;;;;4.18;2.80;;;;;;;13.46;79.42;99517.88;340595;29;1849;-85
2022/10/23 00:25:05;;;;;;;5.22;2.60;;;;;;;13.48;79.43;99523.00;339832;29;1164;-85
2022/10/23 00:25:17;;;;;;;4.43;2.30;;;;;;;13.49;79.55;99517.72;340331;29;878;-85
2022/10/23 00:25:29;;;;;;;4.20;2.42;;;;;;;13.48;79.54;99521.25;341546;29;727;-85
2022/10/23 00:25:41;;;;;;;4.90;2.58;;;;;;;13.46;79.40;99522.22;340129;29;984;-85
2022/10/23 00:25:53;;;;;;;4.70;2.60;;;;;;;13.44;79.50;99524.06;340070;29;1274;-84
2022/10/23 00:26:07;;;;;;;4.30;2.75;;;;;;;13.40;79.50;99526.00;340196;29;1207;-85
2022/10/23 00:26:19;;;;;;;4.30;2.80;;;;;;;13.44;79.42;99519.69;340664;29;1213;-86
2022/10/23 00:26:31;;;;;;;4.68;2.83;;;;;;;13.44;79.50;99518.84;340543;29;735;-85
2022/10/23 00:26:43;;;;;;;5.47;2.88;;;;;;;13.44;79.25;99522.31;340164;29;810;-85
2022/10/23 00:26:55;;;;;;;6.45;2.88;;;;;;;13.43;79.06;99525.81;340136;29;1478;-85
2022/10/23 00:27:07;;;;;;;6.05;2.80;;;;;;;13.44;79.03;99518.84;339121;29;743;-85
2022/10/23 00:27:19;;;;;;;3.70;2.72;;;;;;;13.44;79.15;99524.94;338738;29;1222;-86
2022/10/23 00:27:32;;;;;;;4.13;2.60;;;;;;;13.47;79.54;99530.00;338339;29;1570;-85
2022/10/23 00:27:44;;;;;;;4.22;2.60;;;;;;;13.47;79.07;99524.75;339684;29;1244;-85
2022/10/23 00:27:56;;;;;;;6.07;2.67;;;;;;;13.47;79.79;99519.53;339954;29;1906;-85
2022/10/23 00:28:08;;;;;;;5.82;2.80;;;;;;;13.46;79.18;99524.84;340266;29;1077;-85
2022/10/23 00:28:20;;;;;;;6.68;3.08;;;;;;;13.48;79.41;99515.16;340301;29;1198;-85
2022/10/23 00:28:33;;;;;;;6.75;3.00;;;;;;;13.48;79.40;99516.03;339933;29;1193;-85
2022/10/23 00:28:49;;;;;;;7.05;2.88;;;;;;;13.46;79.18;99522.22;340223;29;1097;-84
2022/10/23 00:29:00;;;;;;;4.95;2.75;;;;;;;13.46;79.19;99520.47;341936;29;873;-85
2022/10/23 00:29:12;;;;;;;5.47;2.80;;;;;;;13.48;79.29;99523.00;341418;29;1075;-84
2022/10/23 00:29:26;;;;;;;6.05;2.75;;;;;;;13.48;78.83;99518.66;341256;29;1089;-84
2022/10/23 00:29:38;;;;;;;6.45;2.80;;;;;;;13.49;79.06;99517.72;341332;29;1099;-85
2022/10/23 00:29:50;;;;;;;6.57;2.90;;;;;;;13.49;79.14;99515.09;341836;28;1560;-85
2022/10/23 00:30:03;;;;;;;6.03;2.90;;;;;;;13.44;79.20;99514.47;345145;28;786;-84
2022/10/23 00:30:15;;;;;;;6.40;3.13;;;;;;;13.45;79.37;99521.38;343851;28;1842;-84
2022/10/23 00:30:27;;;;;;;7.90;3.20;;;;;;;13.46;79.44;99517.00;344069;28;1218;-84
2022/10/23 00:30:39;;;;;;;6.60;3.00;;;;;;;13.44;79.01;99517.09;343976;28;1014;-85
2022/10/23 00:30:51;;;;;;;5.05;2.72;;;;;;;13.44;79.29;99518.84;343773;28;1407;-85
2022/10/23 00:31:04;;;;;;;5.35;2.78;;;;;;;13.43;79.39;99523.22;343120;28;1077;-85
2022/10/23 00:31:18;;;;;;;5.68;2.80;;;;;;;13.44;79.53;99519.69;344180;28;771;-85
2022/10/23 00:31:31;;;;;;;5.78;2.90;;;;;;;13.43;79.44;99512.78;344137;28;1095;-85
2022/10/23 00:31:43;;;;;;;7.50;3.00;;;;;;;13.43;79.50;99506.72;343988;28;1198;-84
2022/10/23 00:31:55;;;;;;;9.07;3.00;;;;;;;13.41;79.24;99513.78;344468;28;748;-85
2022/10/23 00:32:06;;;;;;;7.40;3.08;;;;;;;13.43;79.42;99510.16;344286;28;852;-84
2022/10/23 00:32:18;;;;;;;6.55;3.00;;;;;;;13.42;79.53;99511.09;342214;28;1345;-85
2022/10/23 00:32:30;;;;;;;6.57;3.05;;;;;;;13.43;79.58;99510.16;342707;28;1282;-86
2022/10/23 00:32:47;;;;;;;5.97;3.10;;;;;;;13.44;79.14;99513.63;342808;28;1213;-85
2022/10/23 00:33:01;;;;;;;4.93;3.10;;;;;;;13.42;79.64;99518.94;340838;29;1182;-86
2022/10/23 00:33:13;;;;;;;4.78;3.05;;;;;;;13.44;79.52;99509.25;341408;29;841;-85
2022/10/23 00:33:28;;;;;;;5.70;3.00;;;;;;;13.43;79.64;99512.78;341522;29;838;-86
2022/10/23 00:33:41;;;;;;;5.93;2.92;;;;;;;13.42;79.69;99505.88;341294;29;1092;-86
2022/10/23 00:33:56;;;;;;;6.35;2.70;;;;;;;13.42;79.41;99516.31;342802;28;979;-85
2022/10/23 00:34:08;;;;;;;6.00;2.70;;;;;;;13.44;79.04;99511.88;342970;28;908;-86
2022/10/23 00:34:20;;;;;;;7.05;2.85;;;;;;;13.46;79.34;99512.66;341548;29;880;-85
2022/10/23 00:34:34;;;;;;;7.27;3.00;;;;;;;13.50;79.15;99506.34;341170;29;1021;-84
2022/10/23 00:34:49;;;;;;;7.28;3.30;;;;;;;13.51;79.22;99508.03;341508;29;742;-86
2022/10/23 00:35:04;;;;;;;5.47;3.15;;;;;;;13.54;79.08;99507.03;341821;29;822;-85
2022/10/23 00:35:19;;;;;;;4.22;2.90;;;;;;;13.55;78.81;99506.13;341595;29;846;-84
2022/10/23 00:35:31;;;;;;;6.05;2.85;;;;;;;13.54;78.80;99507.91;341395;29;970;-85
2022/10/23 00:35:48;;;;;;;6.35;2.95;;;;;;;13.55;79.22;99506.97;342705;28;1071;-85
2022/10/23 00:36:07;;;;;;;6.47;3.20;;;;;;;13.55;78.93;99506.97;342904;28;1271;-85
2022/10/23 00:36:20;;;;;;;7.35;3.05;;;;;;;13.51;79.06;99502.81;342550;28;1050;-84
2022/10/23 00:36:33;;;;;;;6.82;2.90;;;;;;;13.53;78.99;99506.19;342837;28;1066;-84
2022/10/23 00:36:45;;;;;;;7.68;2.90;;;;;;;13.54;78.81;99500.06;343110;28;861;-84
2022/10/23 00:36:57;;;;;;;7.07;2.80;;;;;;;13.55;78.95;99506.13;343031;28;750;-84
2022/10/23 00:37:12;;;;;;;6.55;2.63;;;;;;;13.54;78.92;99510.53;341433;29;1128;-84
2022/10/23 00:37:24;;;;;;;7.15;2.72;;;;;;;13.51;78.85;99505.41;341504;29;1206;-86
2022/10/23 00:37:36;;;;;;;5.38;2.83;;;;;;;13.51;78.85;99505.41;341844;28;1067;-85
2022/10/23 00:37:51;;;;;;;4.43;2.72;;;;;;;13.51;79.02;99510.66;342988;28;836;-85
2022/10/23 00:38:03;;;;;;;8.77;2.80;;;;;;;13.51;78.78;99504.59;340357;29;933;-85
2022/10/23 00:38:18;;;;;;;9.60;2.92;;;;;;;13.51;78.56;99504.59;341451;29;1339;-86
2022/10/23 00:38:30;;;;;;;6.75;2.95;;;;;;;13.52;78.72;99512.34;342860;28;1074;-85
2022/10/23 00:38:42;;;;;;;6.43;3.05;;;;;;;13.51;78.73;99510.66;343051;28;984;-85
2022/10/23 00:38:54;;;;;;;5.97;2.83;;;;;;;13.49;78.42;99501.19;343140;28;741;-84
2022/10/23 00:39:06;;;;;;;5.32;2.80;;;;;;;13.50;78.43;99514.19;340413;29;1081;-85
2022/10/23 00:39:21;;;;;;;5.00;2.85;;;;;;;13.46;77.93;99515.25;341721;29;1005;-84
2022/10/23 00:39:33;;;;;;;5.60;3.05;;;;;;;13.47;78.45;99509.09;341690;29;1031;-84
2022/10/23 00:39:48;;;;;;;5.63;3.05;;;;;;;13.49;78.77;99512.47;341744;29;754;-85
2022/10/23 00:40:03;;;;;;;6.68;3.10;;;;;;;13.49;78.86;99509.88;343023;28;1148;-84
2022/10/23 00:40:15;;;;;;;6.88;3.10;;;;;;;13.50;78.69;99519.41;341658;29;1085;-84
2022/10/23 00:40:27;;;;;;;6.30;3.00;;;;;;;13.52;78.71;99517.56;341275;29;1192;-84
2022/10/23 00:40:41;;;;;;;6.53;3.00;;;;;;;13.51;78.46;99505.41;341407;29;1198;-85
2022/10/23 00:40:53;;;;;;;7.00;3.20;;;;;;;13.51;78.60;99505.41;341268;29;1438;-84
2022/10/23 00:41:07;;;;;;;7.30;3.10;;;;;;;13.51;78.91;99507.19;341543;29;958;-85
2022/10/23 00:41:27;;;;;;;6.05;3.25;;;;;;;13.50;78.57;99508.09;341606;29;834;-84
2022/10/23 00:41:39;;;;;;;7.13;3.10;;;;;;;13.50;78.60;99506.34;341181;29;1477;-84
2022/10/23 00:41:51;;;;;;;6.18;2.90;;;;;;;13.49;78.81;99512.47;340640;29;739;-85
2022/10/23 00:42:03;;;;;;;6.18;2.72;;;;;;;13.50;78.80;99513.31;340042;29;1150;-85
2022/10/23 00:42:17;;;;;;;7.70;2.85;;;;;;;13.49;78.99;99502.03;341538;29;1071;-85
2022/10/23 00:42:29;;;;;;;6.83;3.00;;;;;;;13.51;78.74;99510.66;341506;29;1189;-85
2022/10/23 00:42:41;;;;;;;6.22;3.10;;;;;;;13.48;78.97;99500.38;342742;28;1088;-85
2022/10/23 00:42:53;;;;;;;5.15;3.08;;;;;;;13.49;78.91;99503.81;343106;28;1480;-85
2022/10/23 00:43:06;;;;;;;4.55;3.17;;;;;;;13.49;78.73;99502.03;341227;29;1046;-84
2022/10/23 00:43:20;;;;;;;3.95;3.00;;;;;;;13.47;78.82;99509.09;342432;28;1082;-86
2022/10/23 00:43:32;;;;;;;5.85;2.92;;;;;;;13.46;79.02;99507.41;341330;29;1537;-86
2022/10/23 00:44:02;;;;;;;6.10;3.05;;;;;;;13.45;78.95;99516.16;341457;29;1115;-84
2022/10/23 00:44:16;;;;;;;5.18;3.03;;;;;;;13.42;78.91;99508.47;340183;29;973;-86
2022/10/23 00:44:28;;;;;;;5.72;3.03;;;;;;;13.41;78.83;99506.78;340307;29;963;-86
2022/10/23 00:44:40;;;;;;;4.68;2.90;;;;;;;13.42;78.67;99505.88;339439;29;1377;-88
2022/10/23 00:44:52;;;;;;;4.35;2.85;;;;;;;13.45;78.96;99512.72;340182;29;1153;-86
2022/10/23 00:45:24;;;;;;;4.22;2.83;;;;;;;13.47;78.81;99509.09;340432;29;877;-86
2022/10/23 00:45:36;;;;;;;4.93;2.75;;;;;;;13.49;78.76;99512.47;342671;28;955;-85
2022/10/23 00:45:48;;;;;;;6.35;2.95;;;;;;;13.49;78.62;99503.81;341344;29;1158;-87
2022/10/23 00:46:00;;;;;;;6.75;3.03;;;;;;;13.50;78.82;99506.34;341222;29;851;-84
2022/10/23 00:46:12;;;;;;;4.85;2.97;;;;;;;13.50;78.78;99508.97;339853;29;1121;-85
2022/10/23 00:46:25;;;;;;;5.35;3.00;;;;;;;13.49;78.66;99515.09;341246;29;1184;-85
2022/10/23 00:46:38;;;;;;;5.95;2.97;;;;;;;13.47;78.62;99511.72;341527;29;735;-85
2022/10/23 00:46:50;;;;;;;6.97;3.00;;;;;;;13.46;78.71;99512.66;341440;29;1032;-85
2022/10/23 00:47:02;;;;;;;8.02;3.20;;;;;;;13.47;78.67;99509.09;342165;28;794;-86
2022/10/23 00:47:14;;;;;;;6.68;2.95;;;;;;;13.48;78.97;99510.81;340751;29;1152;-85
2022/10/23 00:47:26;;;;;;;5.93;2.78;;;;;;;13.49;78.88;99504.66;340058;29;995;-87
2022/10/23 00:47:41;;;;;;;5.47;2.58;;;;;;;13.49;78.79;99512.47;341430;29;742;-87
2022/10/23 00:47:54;;;;;;;6.20;3.10;;;;;;;13.49;79.00;99506.41;341656;29;1052;-85
2022/10/23 00:48:06;;;;;;;6.78;3.28;;;;;;;13.50;78.86;99514.19;341594;28;873;-86
2022/10/23 00:48:18;;;;;;;6.68;3.10;;;;;;;13.49;78.94;99511.66;343155;28;742;-85
2022/10/23 00:48:30;;;;;;;7.75;3.28;;;;;;;13.48;78.76;99513.41;341368;29;1542;-85
2022/10/23 00:48:42;;;;;;;8.10;3.50;;;;;;;13.49;78.96;99512.47;341263;29;758;-85
2022/10/23 00:48:55;;;;;;;8.05;3.75;;;;;;;13.47;79.22;99513.47;341498;29;757;-85
2022/10/23 00:49:08;;;;;;;12.43;5.28;;;;;;;13.45;79.11;99516.16;341642;29;815;-86
2022/10/23 00:49:21;;;;;;;13.02;5.70;;;;;;;13.44;79.38;99517.09;341373;29;1095;-85
2022/10/23 00:49:34;;;;;;;10.10;5.03;;;;;;;13.42;79.31;99511.09;341435;29;2056;-85
2022/10/23 00:49:46;;;;;;;8.85;4.63;;;;;;;13.45;79.24;99512.72;341438;29;773;-85
2022/10/23 00:50:00;;;;;;;11.38;5.85;;;;;;;13.47;79.31;99514.31;341517;29;746;-85
2022/10/23 00:50:12;;;;;;;15.23;7.97;;;;;;;13.47;79.45;99511.72;340278;29;783;-86
2022/10/23 00:50:25;;;;;;;16.45;8.07;;;;;;;13.49;79.14;99512.47;341139;29;862;-88
2022/10/23 00:50:37;;;;;;;16.45;7.75;;;;;;;13.46;79.25;99507.41;341825;28;1200;-85
2022/10/23 00:50:49;;;;;;;17.10;7.78;;;;;;;13.48;79.29;99510.81;341832;28;1525;-85
2022/10/23 00:51:02;;;;;;;18.60;7.57;;;;;;;13.46;79.21;99510.03;341329;29;1605;-85
2022/10/23 00:51:14;;;;;;;22.00;7.97;;;;;;;13.48;78.95;99504.72;341199;29;1022;-86
2022/10/23 00:51:30;;;;;;;22.08;8.65;;;;;;;13.48;79.07;99505.59;342597;28;1144;-85
2022/10/23 00:51:46;;;;;;;19.90;9.50;;;;;;;13.48;79.07;99502.09;341398;29;1096;-85
2022/10/23 00:52:03;;;;;;;19.92;9.40;;;;;;;13.49;78.86;99502.03;341681;28;1058;-84
2022/10/23 00:52:15;;;;;;;15.35;7.80;;;;;;;13.49;78.86;99499.44;342799;28;1162;-85
2022/10/23 00:52:28;;;;;;;17.88;7.90;;;;;;;13.49;79.14;99502.03;343031;28;820;-85
2022/10/23 00:52:47;;;;;;;19.63;8.82;;;;;;;13.48;79.16;99509.94;341599;29;786;-86
2022/10/23 00:53:02;;;;;;;20.15;9.27;;;;;;;13.48;79.02;99504.72;341761;29;870;-85
2022/10/23 00:53:15;;;;;;;18.17;8.57;;;;;;;13.46;78.98;99510.03;340339;29;984;-85
2022/10/23 00:53:27;;;;;;;17.77;8.40;;;;;;;13.43;79.20;99507.56;340549;29;1188;-84
2022/10/23 00:53:42;;;;;;;18.00;8.30;;;;;;;13.40;79.53;99507.72;341220;29;1168;-84
2022/10/23 00:53:58;;;;;;;17.13;8.20;;;;;;;13.41;79.26;99509.38;340958;29;1044;-86
2022/10/23 00:54:36;;;;;;;12.73;6.25;;;;;;;13.44;79.40;99506.66;341461;28;1564;-85
2022/10/23 00:54:48;;;;;;;15.02;6.80;;;;;;;13.46;79.27;99512.66;341420;29;857;-85
2022/10/23 00:55:01;;;;;;;14.88;6.68;;;;;;;13.46;79.40;99512.66;339957;29;1184;-85
2022/10/23 00:55:14;;;;;;;14.40;6.65;;;;;;;13.47;79.29;99513.47;340377;29;755;-85
2022/10/23 00:55:27;;;;;;;16.60;7.47;;;;;;;13.46;79.44;99510.03;338667;29;1735;-86
2022/10/23 00:55:45;;;;;;;19.65;8.52;;;;;;;13.47;79.42;99511.72;339007;29;1193;-85
2022/10/23 00:55:58;;;;;;;19.48;8.57;;;;;;;13.47;79.44;99508.25;337779;29;853;-87
2022/10/23 00:56:10;;;;;;;18.52;8.25;;;;;;;13.47;79.54;99508.25;337391;29;1036;-84
2022/10/23 00:56:24;;;;;;;15.25;7.35;;;;;;;13.49;79.47;99507.25;339877;29;1039;-84
2022/10/23 00:56:40;;;;;;;12.10;6.47;;;;;;;13.50;79.19;99503.75;341286;28;1038;-85
2022/10/23 00:56:57;;;;;;;10.35;5.18;;;;;;;13.51;79.25;99502.81;341323;29;1096;-85
2022/10/23 00:57:14;;;;;;;10.25;5.32;;;;;;;13.50;79.40;99503.75;340349;29;1188;-85
2022/10/23 00:57:26;;;;;;;14.52;6.88;;;;;;;13.51;79.28;99505.41;340337;29;963;-85
2022/10/23 00:57:45;;;;;;;15.98;7.00;;;;;;;13.52;79.31;99506.25;340088;29;1073;-85
2022/10/23 00:57:57;;;;;;;15.40;6.78;;;;;;;13.52;79.10;99506.25;341747;29;854;-85
2022/10/23 00:58:10;;;;;;;16.23;7.05;;;;;;;13.50;78.98;99514.19;341477;28;1165;-84
2022/10/23 00:58:22;;;;;;;16.98;7.22;;;;;;;13.46;79.19;99507.41;340615;29;751;-85
2022/10/23 00:58:34;;;;;;;15.45;7.28;;;;;;;13.47;78.98;99511.72;340214;29;758;-84
2022/10/23 00:58:46;;;;;;;13.55;6.78;;;;;;;13.47;78.60;99508.25;341451;28;1662;-84
2022/10/23 00:58:58;;;;;;;12.70;6.30;;;;;;;13.50;78.80;99515.94;340987;28;1067;-84
2022/10/23 00:59:10;;;;;;;12.80;6.07;;;;;;;13.52;78.95;99511.50;341251;29;982;-84
2022/10/23 00:59:22;;;;;;;13.02;6.20;;;;;;;13.53;79.00;99503.59;341025;29;1268;-87
2022/10/23 00:59:35;;;;;;;12.73;6.07;;;;;;;13.53;78.96;99510.59;340211;29;778;-85
2022/10/23 00:59:47;;;;;;;11.93;6.03;;;;;;;13.51;78.87;99515.03;341734;29;988;-84
2022/10/23 00:59:59;;;;;;;11.13;5.75;;;;;;;13.48;78.92;99505.59;340153;29;927;-87
2022/10/23 01:00:23;;;;;;;9.27;5.20;;;;;;;13.50;79.24;99513.31;339305;29;752;-84
2022/10/23 01:00:44;;;;;;;8.52;4.30;;;;;;;13.51;78.82;99505.41;339047;29;902;-85
2022/10/23 01:00:56;;;;;;;7.50;4.07;;;;;;;13.50;78.70;99506.34;338930;29;1443;-88
2022/10/23 01:01:17;;;;;;;7.15;4.40;;;;;;;13.50;79.06;99502.88;338720;29;899;-85
2022/10/23 01:01:29;;;;;;;7.65;3.97;;;;;;;13.52;78.95;99504.53;338821;29;1175;-85
2022/10/23 01:01:41;;;;;;;7.35;3.95;;;;;;;13.48;79.00;99505.59;336917;29;983;-84
2022/10/23 01:01:54;;;;;;;6.20;4.00;;;;;;;13.46;79.29;99510.03;338682;29;993;-85
2022/10/23 01:02:06;;;;;;;7.80;4.80;;;;;;;13.47;78.97;99509.09;339840;29;1000;-87
2022/10/23 01:02:19;;;;;;;7.97;4.68;;;;;;;13.49;79.06;99509.88;341598;29;1011;-85
2022/10/23 01:02:32;;;;;;;7.55;4.38;;;;;;;13.51;79.18;99510.66;341672;29;867;-85
2022/10/23 01:02:44;;;;;;;7.68;4.10;;;;;;;13.51;79.21;99508.03;341682;29;730;-84
2022/10/23 01:02:57;;;;;;;7.40;3.83;;;;;;;13.51;79.17;99508.03;341680;29;757;-85
2022/10/23 01:03:09;;;;;;;7.07;3.92;;;;;;;13.52;79.10;99512.34;343007;28;889;-85
2022/10/23 01:03:26;;;;;;;8.20;4.32;;;;;;;13.51;79.44;99504.59;343106;28;989;-84
2022/10/23 01:03:38;;;;;;;11.80;5.93;;;;;;;13.49;79.69;99512.47;341167;29;1069;-86
2022/10/23 01:03:50;;;;;;;11.10;5.97;;;;;;;13.51;79.66;99509.81;342728;28;1028;-85
2022/10/23 01:04:04;;;;;;;12.40;5.82;;;;;;;13.50;79.73;99514.19;341643;29;743;-85
2022/10/23 01:04:17;;;;;;;11.82;5.68;;;;;;;13.50;79.51;99514.19;341240;29;915;-86
2022/10/23 01:04:30;;;;;;;12.57;5.78;;;;;;;13.50;79.20;99508.97;340251;29;786;-84